Plymouth, MA

6:36 AM EST on March 02, 2015 (GMT -0500)
KMAROCKL1 | Change Station
CLOSE
Current Station
Personal Weather Station
Location: Plymouth, MA
Elevation: 110 ft
Nearby Weather Stations
Active Advisory: Special Statement Active Notice: Public Information Statement

Elev 110 ft 41.94 °N, 70.66 °W | Updated 6 minutes ago

Overcast
Overcast
27.8 °F
Feels Like 28 °F
N
0.0
Wind Variable Wind from WNW
Gusts 2.0 mph

Today
High -- | Low -- °F
--% Chance of Precip.
Yesterday
High -- | Low -- °F
Precip. -- in
6:16 AM 5:33 PM
Waxing Gibbous, 91% visible
Pressure 29.96 in
Visibility 10.0 miles
Clouds Overcast 8000 ft
Windchill 28 °F
Dew Point 26 °F
Humidity 94%
Rainfall 0.00 in
Snow Depth Not available.
UV 0.0 out of 12
Pollen .40 out of 12
Air Quality Not available.
Flu Activity Not available.
METAR KPYM 021052Z AUTO 24005KT 10SM OVC080 M02/M03 A2995 RMK AO2 SLP144 T10221033

More Conditions Fewer Conditions

Pressure 29.96 in
Visibility 10.0 miles
Clouds Overcast 8000 ft
Windchill 28 °F
Dew Point 26 °F
Humidity 94%
Rainfall 0.00 in
Snow Depth Not available.
UV 0.0 out of 12
Pollen .40 out of 12
Air Quality Not available.
Flu Activity Not available.
METAR KPYM 021052Z AUTO 24005KT 10SM OVC080 M02/M03 A2995 RMK AO2 SLP144 T10221033

More Conditions Fewer Conditions

10-Day Weather Forecast

Almanac

Astronomy

Mar. 02, 2015 Rise Set
Actual Time
Civil Twilight
Nautical Twilight
Astronomical Twilight
Moon
Length of Visible Light
Length of Day
Tomorrow will be .
, % of the Moon is Illuminated

Today's Extremes

State Highs State Lows

Community

WunderPhotos

Upload Photos

1,801,757 photos uploaded!

WunderBlogs® & News

Nearby

Air Quality

  Air Quality AQ Index Pollutant
Not available.

Snow Depth

Station Depth Elevation

Earthquake Activity

City Distance Mag. Time & Date
Minimum magnitude displayed is 2.5.

Coastal Water Temperatures

Place Temperature

Nearby Weather Stations

Special Statement
Statement as of 2:03 AM EST on March 02, 2015

... The snow has ended but with temperatures below freezing
untreated roads will remain snow covered and slippery for the
morning rush hour...

Even though the snow has come to an end... temperatures are below
freezing. Therefore... untreated roads will remain snow covered and
slippery for the morning rush hour. Motorists should drive with
extra caution if traveling early this morning.


Frank


203 am EST Mon Mar 2 2015

... The snow has ended but with temperatures below freezing
untreated roads will remain snow covered and slippery for the
morning rush hour...

Even though the snow has come to an end... temperatures are below
freezing. Therefore... untreated roads will remain snow covered and
slippery for the morning rush hour. Motorists should drive with
extra caution if traveling early this morning.


Frank